Sunday, December 16, 2018, 5:29 AM EST
Back to Local

KMGJ, Montgomery Orange Co Airport

Location: Montgomery, NY, United States Lat: 41.517
Local Time: 5:29 AM EST (10:29 GMT) Lon: -74.267
Time Zone: US/Eastern Elev: 354 ft

Show me the last for .
Show Decoded

2018-12-16 04:54 METAR KMGJ 160954Z AUTO 04011KT 10SM -RA BKN060 OVC080 02/M02 A3009 RMK AO2
                 UPB24E27RAB27 SLP193 P0000 T00221017 =
2018-12-16 03:54 METAR KMGJ 160854Z AUTO 04013KT 10SM SCT060 BKN095 OVC110 03/M02 A3011 RMK AO2
                 SLP199 60000 T00281022 51000 =
2018-12-16 02:54 METAR KMGJ 160754Z AUTO 04012KT 10SM BKN090 BKN120 03/M02 A3011 RMK AO2 RAE0658
                 SLP198 P0000 T00281017 =
2018-12-16 01:54 METAR KMGJ 160654Z AUTO 04011KT 10SM -RA BKN055 03/M02 A3012 RMK AO2 RAB41
                 SLP202 P0000 T00281017 =
2018-12-16 00:54 METAR KMGJ 160554Z AUTO 03013G21KT 10SM FEW055 03/M01 A3011 RMK AO2 SLP198
                 T00331011 10067 20033 56015 =
2018-12-15 23:54 METAR KMGJ 160454Z AUTO 04012KT 10SM CLR 04/M01 A3014 RMK AO2 SLP209 T00391006
                 400780028 =
2018-12-15 22:54 METAR KMGJ 160354Z AUTO 03011KT 10SM CLR 04/00 A3012 RMK AO2 SLP201 T00390000 =
2018-12-15 21:54 METAR KMGJ 160254Z AUTO 04012KT 10SM CLR 05/01 A3015 RMK AO2 SLP212 T00500006
                 50000 =
2018-12-15 20:54 METAR KMGJ 160154Z AUTO 03011KT 10SM CLR 05/02 A3017 RMK AO2 SLP218 T00500022 =
2018-12-15 19:54 METAR KMGJ 160054Z AUTO 03012KT 10SM CLR 06/02 A3014 RMK AO2 SLP211 T00610022 =
2018-12-15 18:54 METAR KMGJ 152354Z AUTO 04011KT 10SM CLR 07/02 A3015 RMK AO2 SLP213 T00670022
                 10078 20056 53020 =
2018-12-15 17:54 METAR KMGJ 152254Z AUTO 05006KT 10SM CLR 07/01 A3011 RMK AO2 SLP200 T00720011 =
2018-12-15 16:54 METAR KMGJ 152154Z AUTO 04010KT 10SM CLR 08/02 A3006 RMK AO2 SLP181 T00780017 =
2018-12-15 16:36 METAR KMGJ 152136Z AUTO 05008KT 3SM HZ CLR 07/04 A3007 RMK AO2 T00670039 =
2018-12-15 16:32 METAR KMGJ 152132Z AUTO 04007KT 1SM BR CLR 06/04 A3007 RMK AO2 T00560044 =
2018-12-15 16:23 METAR KMGJ 152123Z AUTO 02003KT 1 3/4SM BR CLR 06/06 A3009 RMK AO2 VIS 1/2V4
                 T00610056 =
2018-12-15 16:20 METAR KMGJ 152120Z AUTO 02003KT 3SM BR CLR 06/06 A3009 RMK AO2 T00610056 =
2018-12-15 16:04 METAR KMGJ 152104Z AUTO 00000KT 1 3/4SM BR CLR 06/05 A3009 RMK AO2 T00560050 =
2018-12-15 15:54 METAR KMGJ 152054Z AUTO 00000KT 5SM BR CLR 06/06 A3009 RMK AO2 SLP193 T00610056
                 58010 =
2018-12-15 14:54 METAR KMGJ 151954Z AUTO 36003KT 8SM CLR 08/06 A3011 RMK AO2 SLP197 T00780061 =
2018-12-15 13:54 METAR KMGJ 151854Z AUTO 02005KT 8SM CLR 08/06 A3011 RMK AO2 SLP200 T00780061 =
2018-12-15 12:54 METAR KMGJ 151754Z AUTO 35003KT 6SM BR BKN060 08/07 A3012 RMK AO2 SLP203
                 T00780067 10078 20039 56018 =
2018-12-15 12:14 METAR KMGJ 151714Z AUTO 00000KT 5SM BR SCT006 BKN060 07/06 A3014 RMK AO2
                 T00720061 =
2018-12-15 11:54 METAR KMGJ 151654Z AUTO 36003KT 4SM BR OVC060 07/06 A3013 RMK AO2 SLP206
                 T00720061 =
2018-12-15 11:41 METAR KMGJ 151641Z AUTO 35003KT 3SM BR SCT004 OVC055 07/06 A3013 RMK AO2
                 T00720061 =
2018-12-15 11:10 METAR KMGJ 151610Z AUTO 36005KT 3SM BR BKN003 OVC055 07/06 A3015 RMK AO2
                 T00720061 =
2018-12-15 10:54 METAR KMGJ 151554Z AUTO 03008KT 4SM BR SCT003 BKN050 07/06 A3016 RMK AO2 SLP214
                 T00720061 =
2018-12-15 10:42 METAR KMGJ 151542Z AUTO 02006KT 3SM BR SCT003 BKN050 07/06 A3016 RMK AO2
                 T00720061 =
2018-12-15 10:18 METAR KMGJ 151518Z AUTO 01003KT 3SM BR BKN003 OVC049 07/06 A3017 RMK AO2
                 T00720056 =
2018-12-15 10:02 METAR KMGJ 151502Z AUTO 01003KT 4SM BR SCT003 BKN041 OVC050 07/06 A3017 RMK AO2
                 T00670056 =
2018-12-15 09:54 METAR KMGJ 151454Z AUTO 00000KT 3SM BR FEW033 BKN043 OVC050 07/06 A3018 RMK AO2
                 SLP221 T00670056 51003 =
2018-12-15 09:11 METAR KMGJ 151411Z AUTO 00000KT 2 1/2SM BR OVC032 06/05 A3019 RMK AO2 T00560050
                 =
2018-12-15 08:54 METAR KMGJ 151354Z AUTO 00000KT 1 1/2SM BR FEW002 OVC031 05/04 A3019 RMK AO2
                 SLP225 T00500044 =
2018-12-15 08:37 METAR KMGJ 151337Z AUTO 00000KT 1 1/4SM BR FEW002 BKN027 OVC039 04/04 A3018 RMK
                 AO2 T00440039 =
2018-12-15 08:28 METAR KMGJ 151328Z AUTO 22003KT 1 1/4SM BR FEW020 BKN025 OVC040 04/04 A3017 RMK
                 AO2 T00440039 =
2018-12-15 08:14 METAR KMGJ 151314Z AUTO 22003KT 3/4SM BR BKN017 OVC038 04/03 A3017 RMK AO2
                 T00390033 =
2018-12-15 07:54 METAR KMGJ 151254Z AUTO 03004KT 1 1/4SM BR OVC017 04/03 A3017 RMK AO2 SLP218
                 T00390033 =
2018-12-15 07:52 METAR KMGJ 151252Z AUTO 02005KT 1 1/4SM BR OVC017 04/03 A3017 RMK AO2 =
2018-12-15 07:41 METAR KMGJ 151241Z AUTO 00000KT 2SM BR OVC018 04/03 A3017 RMK AO2 T00390033 =
2018-12-15 07:32 METAR KMGJ 151232Z AUTO 00000KT 1 3/4SM BR OVC018 04/03 A3016 RMK AO2 T00390033
                 =
2018-12-15 07:07 METAR KMGJ 151207Z AUTO 00000KT 2SM BR BKN019 OVC041 04/04 A3017 RMK AO2
                 T00390039 =
2018-12-15 06:54 METAR KMGJ 151154Z AUTO 00000KT 2SM BR SCT021 OVC040 04/03 A3017 RMK AO2 SLP219
                 60003 70008 T00390033 10039 20028 56003 =
2018-12-15 06:46 METAR KMGJ 151146Z AUTO 33005KT 1 1/2SM BR SCT023 OVC040 04/03 A3017 RMK AO2
                 T00390033 =
2018-12-15 06:30 METAR KMGJ 151130Z AUTO 17004KT 1 1/2SM BR SCT018 OVC024 04/03 A3016 RMK AO2
                 T00390033 =
2018-12-15 06:18 METAR KMGJ 151118Z AUTO 00000KT 2SM BR OVC018 04/03 A3017 RMK AO2 T00390033 =
2018-12-15 05:54 METAR KMGJ 151054Z AUTO 00000KT 1 1/4SM BR OVC018 04/03 A3017 RMK AO2 SLP219
                 T00390033 =

Support USWX by starting your Amazon purchase here.